Terminal Aerodrome Forecast
Issued by NWS Cleveland, OH

Home | Current Version | Previous Version | Text Only | Print | Product List | Glossary Off
Versions: 1 2 3 4 5 6 7 8 9 10 11 12 13 14 15 16

000
FTUS41 KCLE 172200 AAA
TAFERI
TAF AMD
KERI 172228Z 1722/1818 26012G22KT P6SM OVC020
     FM180100 26012G22KT 6SM -SHSN BR OVC018
      TEMPO 1801/1805 3SM -SHSN
     FM181000 28010KT P6SM OVC015=

USA.gov is the U.S. government's official web portal to all federal, state and local government web resources and services.